Hovedside
METAR-TAF:

METAR-TAF

Lufthavner :

Scappoose Industrial Airpark

Scappoose, Oregon, USA

breddegrad: 45-46-09N, lengdegrad: 122-51-44W, høyde over havet: 16 m

Gjeldene værobservasjon

Denne rapporten ble laget for 1 time og 0 minutter siden, klokken 21:53 UTC
Vind 5 kt fra Øst-sørøst
Temperatur 24°C
Luftfuktighet 44%
Trykk 1022 hPa
Sikt: 16.1 km
Skyfri himmel

METAR: KSPB 172153Z AUTO 12005KT 10SM CLR 24/11 A3019 RMK AO2 SLP224 T02440106

Tid: 15:53 (22:53 UTC)


TAF: fraværende

Værobservasjoner og værvarsel for over 4000 flyplasser (METAR- og TAF-rapporter).

Tilgjengelige stasjoner er representert av de røde og gule prikkene på kartet.

Hold musepekeren over prikken for å se navnet på stasjonen.

Klikk så for å se værobservasjoner og -varsler.

For å forandre kartet kan du klikke på den grønne knappen med svart kryss for å zoome inn, på den grønne knappen med strek for å zoome ut, eller på de grønne pilene for å se tilstøtende kart.


METAR-TAF: